sensor_id;sensor_type;location;lat;lon;timestamp;P1;durP1;ratioP1;P2;durP2;ratioP2
10162;SDS011;5123;52.556;13.384;2023-11-19T00:01:38;9.93;;;7.73;;
10162;SDS011;5123;52.556;13.384;2023-11-19T00:04:10;11.70;;;7.70;;
10162;SDS011;5123;52.556;13.384;2023-11-19T00:06:43;9.33;;;7.93;;
10162;SDS011;5123;52.556;13.384;2023-11-19T00:09:20;9.73;;;7.10;;
10162;SDS011;5123;52.556;13.384;2023-11-19T00:11:55;8.97;;;7.33;;
10162;SDS011;5123;52.556;13.384;2023-11-19T00:14:35;7.57;;;6.37;;
10162;SDS011;5123;52.556;13.384;2023-11-19T00:17:08;8.17;;;7.33;;
10162;SDS011;5123;52.556;13.384;2023-11-19T00:19:45;7.47;;;6.53;;
10162;SDS011;5123;52.556;13.384;2023-11-19T00:22:21;8.63;;;7.73;;
10162;SDS011;5123;52.556;13.384;2023-11-19T00:24:54;8.30;;;7.00;;
10162;SDS011;5123;52.556;13.384;2023-11-19T00:27:28;9.30;;;6.83;;
10162;SDS011;5123;52.556;13.384;2023-11-19T00:30:00;11.00;;;7.00;;
10162;SDS011;5123;52.556;13.384;2023-11-19T00:32:33;9.00;;;7.20;;
10162;SDS011;5123;52.556;13.384;2023-11-19T00:35:10;8.07;;;7.10;;
10162;SDS011;5123;52.556;13.384;2023-11-19T00:37:47;8.53;;;6.90;;
10162;SDS011;5123;52.556;13.384;2023-11-19T00:40:24;10.07;;;6.97;;
10162;SDS011;5123;52.556;13.384;2023-11-19T00:42:58;9.43;;;7.10;;
10162;SDS011;5123;52.556;13.384;2023-11-19T00:45:34;7.80;;;6.17;;
10162;SDS011;5123;52.556;13.384;2023-11-19T00:48:06;7.80;;;7.00;;
10162;SDS011;5123;52.556;13.384;2023-11-19T00:50:40;10.17;;;6.77;;
10162;SDS011;5123;52.556;13.384;2023-11-19T00:53:15;7.43;;;6.47;;
10162;SDS011;5123;52.556;13.384;2023-11-19T00:55:48;8.97;;;6.47;;
10162;SDS011;5123;52.556;13.384;2023-11-19T00:58:25;10.63;;;7.13;;
10162;SDS011;5123;52.556;13.384;2023-11-19T01:00:58;7.93;;;6.53;;
10162;SDS011;5123;52.556;13.384;2023-11-19T01:03:32;8.03;;;6.77;;
10162;SDS011;5123;52.556;13.384;2023-11-19T01:06:06;8.80;;;6.87;;
10162;SDS011;5123;52.556;13.384;2023-11-19T01:08:40;8.40;;;6.70;;
10162;SDS011;5123;52.556;13.384;2023-11-19T01:11:19;8.53;;;7.20;;
10162;SDS011;5123;52.556;13.384;2023-11-19T01:13:56;7.80;;;6.40;;
10162;SDS011;5123;52.556;13.384;2023-11-19T01:16:28;8.67;;;6.40;;
10162;SDS011;5123;52.556;13.384;2023-11-19T01:19:02;8.37;;;6.83;;
10162;SDS011;5123;52.556;13.384;2023-11-19T01:21:48;9.33;;;6.40;;
10162;SDS011;5123;52.556;13.384;2023-11-19T01:24:21;8.60;;;6.27;;
10162;SDS011;5123;52.556;13.384;2023-11-19T01:26:54;6.83;;;5.77;;
10162;SDS011;5123;52.556;13.384;2023-11-19T01:29:28;6.23;;;5.63;;
10162;SDS011;5123;52.556;13.384;2023-11-19T01:32:01;6.90;;;6.17;;
10162;SDS011;5123;52.556;13.384;2023-11-19T01:34:34;7.37;;;5.57;;
10162;SDS011;5123;52.556;13.384;2023-11-19T01:37:07;6.33;;;5.70;;
10162;SDS011;5123;52.556;13.384;2023-11-19T01:39:43;5.97;;;5.37;;
10162;SDS011;5123;52.556;13.384;2023-11-19T01:42:16;6.20;;;5.60;;
10162;SDS011;5123;52.556;13.384;2023-11-19T01:45:00;7.90;;;5.90;;
10162;SDS011;5123;52.556;13.384;2023-11-19T01:47:33;8.80;;;5.90;;
10162;SDS011;5123;52.556;13.384;2023-11-19T01:50:08;6.40;;;5.37;;
10162;SDS011;5123;52.556;13.384;2023-11-19T01:52:41;8.33;;;5.90;;
10162;SDS011;5123;52.556;13.384;2023-11-19T01:55:14;10.80;;;6.63;;
10162;SDS011;5123;52.556;13.384;2023-11-19T01:57:47;6.73;;;5.37;;
10162;SDS011;5123;52.556;13.384;2023-11-19T02:00:24;6.67;;;5.90;;
10162;SDS011;5123;52.556;13.384;2023-11-19T02:02:58;7.07;;;5.60;;
10162;SDS011;5123;52.556;13.384;2023-11-19T02:05:32;7.00;;;6.30;;
10162;SDS011;5123;52.556;13.384;2023-11-19T02:08:07;11.57;;;6.00;;
10162;SDS011;5123;52.556;13.384;2023-11-19T02:10:40;7.37;;;5.83;;
10162;SDS011;5123;52.556;13.384;2023-11-19T02:13:13;6.70;;;5.73;;
10162;SDS011;5123;52.556;13.384;2023-11-19T02:15:49;6.43;;;5.83;;
10162;SDS011;5123;52.556;13.384;2023-11-19T02:18:23;6.40;;;5.80;;
10162;SDS011;5123;52.556;13.384;2023-11-19T02:20:59;6.93;;;5.90;;
10162;SDS011;5123;52.556;13.384;2023-11-19T02:23:32;6.13;;;5.53;;
10162;SDS011;5123;52.556;13.384;2023-11-19T02:26:12;7.23;;;5.57;;
10162;SDS011;5123;52.556;13.384;2023-11-19T02:28:47;8.97;;;5.87;;
10162;SDS011;5123;52.556;13.384;2023-11-19T02:31:20;6.20;;;5.60;;
10162;SDS011;5123;52.556;13.384;2023-11-19T02:33:54;6.70;;;6.00;;
10162;SDS011;5123;52.556;13.384;2023-11-19T02:36:27;6.33;;;5.47;;
10162;SDS011;5123;52.556;13.384;2023-11-19T02:39:00;6.60;;;5.80;;
10162;SDS011;5123;52.556;13.384;2023-11-19T02:41:33;7.90;;;5.50;;
10162;SDS011;5123;52.556;13.384;2023-11-19T02:44:07;5.60;;;4.97;;
10162;SDS011;5123;52.556;13.384;2023-11-19T02:46:40;9.33;;;5.60;;
10162;SDS011;5123;52.556;13.384;2023-11-19T02:49:14;5.73;;;5.13;;
10162;SDS011;5123;52.556;13.384;2023-11-19T02:51:47;8.47;;;5.83;;
10162;SDS011;5123;52.556;13.384;2023-11-19T02:54:23;6.10;;;5.50;;
10162;SDS011;5123;52.556;13.384;2023-11-19T02:56:58;5.23;;;4.73;;
10162;SDS011;5123;52.556;13.384;2023-11-19T02:59:37;5.83;;;5.10;;
10162;SDS011;5123;52.556;13.384;2023-11-19T03:02:12;6.23;;;4.87;;
10162;SDS011;5123;52.556;13.384;2023-11-19T03:04:47;5.87;;;4.40;;
10162;SDS011;5123;52.556;13.384;2023-11-19T03:07:20;5.77;;;4.87;;
10162;SDS011;5123;52.556;13.384;2023-11-19T03:09:53;7.17;;;4.43;;
10162;SDS011;5123;52.556;13.384;2023-11-19T03:12:26;5.87;;;4.53;;
10162;SDS011;5123;52.556;13.384;2023-11-19T03:15:00;6.00;;;4.70;;
10162;SDS011;5123;52.556;13.384;2023-11-19T03:17:33;5.43;;;4.10;;
10162;SDS011;5123;52.556;13.384;2023-11-19T03:20:07;5.67;;;4.60;;
10162;SDS011;5123;52.556;13.384;2023-11-19T03:22:40;6.73;;;4.93;;
10162;SDS011;5123;52.556;13.384;2023-11-19T03:25:14;6.33;;;4.30;;
10162;SDS011;5123;52.556;13.384;2023-11-19T03:27:47;5.87;;;4.97;;
10162;SDS011;5123;52.556;13.384;2023-11-19T03:30:21;5.57;;;5.00;;
10162;SDS011;5123;52.556;13.384;2023-11-19T03:33:05;6.33;;;5.17;;
10162;SDS011;5123;52.556;13.384;2023-11-19T03:35:37;5.07;;;4.53;;
10162;SDS011;5123;52.556;13.384;2023-11-19T03:38:12;5.33;;;4.67;;
10162;SDS011;5123;52.556;13.384;2023-11-19T03:40:45;5.23;;;4.73;;
10162;SDS011;5123;52.556;13.384;2023-11-19T03:43:18;7.57;;;4.57;;
10162;SDS011;5123;52.556;13.384;2023-11-19T03:45:53;5.67;;;4.77;;
10162;SDS011;5123;52.556;13.384;2023-11-19T03:48:26;8.17;;;5.60;;
10162;SDS011;5123;52.556;13.384;2023-11-19T03:50:59;7.77;;;5.00;;
10162;SDS011;5123;52.556;13.384;2023-11-19T03:53:31;8.13;;;5.33;;
10162;SDS011;5123;52.556;13.384;2023-11-19T03:56:07;8.20;;;5.73;;
10162;SDS011;5123;52.556;13.384;2023-11-19T03:58:40;8.00;;;5.47;;
10162;SDS011;5123;52.556;13.384;2023-11-19T04:01:15;8.50;;;6.67;;
10162;SDS011;5123;52.556;13.384;2023-11-19T04:03:48;7.83;;;5.63;;
10162;SDS011;5123;52.556;13.384;2023-11-19T04:06:22;6.33;;;5.07;;
10162;SDS011;5123;52.556;13.384;2023-11-19T04:08:59;7.53;;;5.97;;
10162;SDS011;5123;52.556;13.384;2023-11-19T04:11:32;6.50;;;5.90;;
10162;SDS011;5123;52.556;13.384;2023-11-19T04:14:05;6.23;;;5.63;;
10162;SDS011;5123;52.556;13.384;2023-11-19T04:16:39;6.47;;;5.53;;
10162;SDS011;5123;52.556;13.384;2023-11-19T04:19:12;6.97;;;5.60;;
10162;SDS011;5123;52.556;13.384;2023-11-19T04:21:45;7.13;;;5.93;;
10162;SDS011;5123;52.556;13.384;2023-11-19T04:24:17;8.33;;;5.80;;
10162;SDS011;5123;52.556;13.384;2023-11-19T04:26:50;9.93;;;6.43;;
10162;SDS011;5123;52.556;13.384;2023-11-19T04:29:23;6.90;;;5.03;;
10162;SDS011;5123;52.556;13.384;2023-11-19T04:31:58;8.47;;;6.27;;
10162;SDS011;5123;52.556;13.384;2023-11-19T04:34:32;6.63;;;5.93;;
10162;SDS011;5123;52.556;13.384;2023-11-19T04:37:05;8.57;;;6.60;;
10162;SDS011;5123;52.556;13.384;2023-11-19T04:39:45;7.27;;;5.83;;
10162;SDS011;5123;52.556;13.384;2023-11-19T04:42:18;7.63;;;6.83;;
10162;SDS011;5123;52.556;13.384;2023-11-19T04:44:51;8.20;;;6.20;;
10162;SDS011;5123;52.556;13.384;2023-11-19T04:47:25;7.03;;;6.03;;
10162;SDS011;5123;52.556;13.384;2023-11-19T04:49:58;10.80;;;6.73;;
10162;SDS011;5123;52.556;13.384;2023-11-19T04:52:31;7.73;;;6.37;;
10162;SDS011;5123;52.556;13.384;2023-11-19T04:55:04;8.27;;;6.57;;
10162;SDS011;5123;52.556;13.384;2023-11-19T04:57:37;7.20;;;6.50;;
10162;SDS011;5123;52.556;13.384;2023-11-19T05:00:11;7.40;;;5.87;;
10162;SDS011;5123;52.556;13.384;2023-11-19T05:02:48;8.27;;;6.40;;
10162;SDS011;5123;52.556;13.384;2023-11-19T05:05:21;11.00;;;6.60;;
10162;SDS011;5123;52.556;13.384;2023-11-19T05:07:53;10.13;;;7.00;;
10162;SDS011;5123;52.556;13.384;2023-11-19T05:10:27;7.60;;;6.50;;
10162;SDS011;5123;52.556;13.384;2023-11-19T05:13:00;8.30;;;6.67;;
10162;SDS011;5123;52.556;13.384;2023-11-19T05:15:35;9.00;;;6.60;;
10162;SDS011;5123;52.556;13.384;2023-11-19T05:18:09;8.40;;;6.73;;
10162;SDS011;5123;52.556;13.384;2023-11-19T05:20:42;10.10;;;6.63;;
10162;SDS011;5123;52.556;13.384;2023-11-19T05:23:14;10.07;;;6.53;;
10162;SDS011;5123;52.556;13.384;2023-11-19T05:25:50;8.37;;;6.20;;
10162;SDS011;5123;52.556;13.384;2023-11-19T05:28:23;9.13;;;6.83;;
10162;SDS011;5123;52.556;13.384;2023-11-19T05:30:57;8.47;;;6.60;;
10162;SDS011;5123;52.556;13.384;2023-11-19T05:33:33;7.23;;;6.33;;
10162;SDS011;5123;52.556;13.384;2023-11-19T05:36:08;6.10;;;5.43;;
10162;SDS011;5123;52.556;13.384;2023-11-19T05:38:41;8.20;;;6.07;;
10162;SDS011;5123;52.556;13.384;2023-11-19T05:41:13;7.03;;;5.47;;
10162;SDS011;5123;52.556;13.384;2023-11-19T05:43:46;6.63;;;5.97;;
10162;SDS011;5123;52.556;13.384;2023-11-19T05:46:19;7.23;;;6.20;;
10162;SDS011;5123;52.556;13.384;2023-11-19T05:48:53;6.20;;;5.37;;
10162;SDS011;5123;52.556;13.384;2023-11-19T05:51:26;7.13;;;6.03;;
10162;SDS011;5123;52.556;13.384;2023-11-19T05:53:59;6.83;;;5.37;;
10162;SDS011;5123;52.556;13.384;2023-11-19T05:56:32;6.57;;;5.57;;
10162;SDS011;5123;52.556;13.384;2023-11-19T05:59:04;7.33;;;6.07;;
10162;SDS011;5123;52.556;13.384;2023-11-19T06:01:40;6.20;;;5.43;;
10162;SDS011;5123;52.556;13.384;2023-11-19T06:04:15;7.17;;;5.43;;
10162;SDS011;5123;52.556;13.384;2023-11-19T06:06:48;7.40;;;5.90;;
10162;SDS011;5123;52.556;13.384;2023-11-19T06:09:21;6.77;;;6.07;;
10162;SDS011;5123;52.556;13.384;2023-11-19T06:11:54;8.10;;;5.57;;
10162;SDS011;5123;52.556;13.384;2023-11-19T06:14:29;7.03;;;5.83;;
10162;SDS011;5123;52.556;13.384;2023-11-19T06:17:05;8.17;;;6.43;;
10162;SDS011;5123;52.556;13.384;2023-11-19T06:19:39;6.57;;;5.80;;
10162;SDS011;5123;52.556;13.384;2023-11-19T06:22:12;6.03;;;5.43;;
10162;SDS011;5123;52.556;13.384;2023-11-19T06:24:45;6.17;;;5.47;;
10162;SDS011;5123;52.556;13.384;2023-11-19T06:27:18;6.17;;;5.57;;
10162;SDS011;5123;52.556;13.384;2023-11-19T06:29:51;6.50;;;5.90;;
10162;SDS011;5123;52.556;13.384;2023-11-19T06:32:24;6.63;;;5.47;;
10162;SDS011;5123;52.556;13.384;2023-11-19T06:35:01;7.07;;;5.43;;
10162;SDS011;5123;52.556;13.384;2023-11-19T06:37:36;6.43;;;5.80;;
10162;SDS011;5123;52.556;13.384;2023-11-19T06:40:09;7.20;;;5.30;;
10162;SDS011;5123;52.556;13.384;2023-11-19T06:42:43;5.80;;;5.20;;
10162;SDS011;5123;52.556;13.384;2023-11-19T06:45:16;6.10;;;5.50;;
10162;SDS011;5123;52.556;13.384;2023-11-19T06:47:49;5.80;;;5.20;;
10162;SDS011;5123;52.556;13.384;2023-11-19T06:50:23;5.30;;;4.80;;
10162;SDS011;5123;52.556;13.384;2023-11-19T06:52:56;5.83;;;5.13;;
10162;SDS011;5123;52.556;13.384;2023-11-19T06:55:28;6.23;;;5.60;;
10162;SDS011;5123;52.556;13.384;2023-11-19T06:58:02;7.53;;;6.10;;
10162;SDS011;5123;52.556;13.384;2023-11-19T07:00:34;6.87;;;6.17;;
10162;SDS011;5123;52.556;13.384;2023-11-19T07:03:10;7.67;;;5.77;;
10162;SDS011;5123;52.556;13.384;2023-11-19T07:05:48;6.13;;;4.93;;
10162;SDS011;5123;52.556;13.384;2023-11-19T07:08:21;5.37;;;4.87;;
10162;SDS011;5123;52.556;13.384;2023-11-19T07:10:54;6.77;;;5.47;;
10162;SDS011;5123;52.556;13.384;2023-11-19T07:13:27;6.43;;;5.30;;
10162;SDS011;5123;52.556;13.384;2023-11-19T07:16:00;7.10;;;5.73;;
10162;SDS011;5123;52.556;13.384;2023-11-19T07:18:33;5.10;;;4.60;;
10162;SDS011;5123;52.556;13.384;2023-11-19T07:21:08;6.23;;;5.13;;
10162;SDS011;5123;52.556;13.384;2023-11-19T07:23:41;6.60;;;5.27;;
10162;SDS011;5123;52.556;13.384;2023-11-19T07:26:14;6.10;;;5.37;;
10162;SDS011;5123;52.556;13.384;2023-11-19T07:28:52;5.83;;;5.23;;
10162;SDS011;5123;52.556;13.384;2023-11-19T07:31:27;5.60;;;5.00;;
10162;SDS011;5123;52.556;13.384;2023-11-19T07:34:00;5.63;;;5.03;;
10162;SDS011;5123;52.556;13.384;2023-11-19T07:36:34;5.93;;;5.10;;
10162;SDS011;5123;52.556;13.384;2023-11-19T07:39:07;5.43;;;4.63;;
10162;SDS011;5123;52.556;13.384;2023-11-19T07:41:40;5.57;;;4.90;;
10162;SDS011;5123;52.556;13.384;2023-11-19T07:44:13;5.20;;;4.63;;
10162;SDS011;5123;52.556;13.384;2023-11-19T07:46:54;5.57;;;5.07;;
10162;SDS011;5123;52.556;13.384;2023-11-19T07:49:27;5.63;;;5.07;;
10162;SDS011;5123;52.556;13.384;2023-11-19T07:52:01;5.97;;;5.23;;
10162;SDS011;5123;52.556;13.384;2023-11-19T07:54:34;6.47;;;5.30;;
10162;SDS011;5123;52.556;13.384;2023-11-19T07:57:07;5.57;;;5.07;;
10162;SDS011;5123;52.556;13.384;2023-11-19T07:59:40;7.60;;;5.10;;
10162;SDS011;5123;52.556;13.384;2023-11-19T08:02:13;5.50;;;5.00;;
10162;SDS011;5123;52.556;13.384;2023-11-19T08:04:46;5.50;;;4.80;;
10162;SDS011;5123;52.556;13.384;2023-11-19T08:07:23;5.93;;;5.37;;
10162;SDS011;5123;52.556;13.384;2023-11-19T08:09:55;5.50;;;5.00;;
10162;SDS011;5123;52.556;13.384;2023-11-19T08:12:28;6.50;;;5.60;;
10162;SDS011;5123;52.556;13.384;2023-11-19T08:15:01;5.73;;;5.03;;
10162;SDS011;5123;52.556;13.384;2023-11-19T08:17:34;5.43;;;4.93;;
10162;SDS011;5123;52.556;13.384;2023-11-19T08:20:08;5.57;;;4.97;;
10162;SDS011;5123;52.556;13.384;2023-11-19T08:22:43;5.60;;;5.07;;
10162;SDS011;5123;52.556;13.384;2023-11-19T08:25:16;5.60;;;5.00;;
10162;SDS011;5123;52.556;13.384;2023-11-19T08:27:51;6.17;;;5.57;;
10162;SDS011;5123;52.556;13.384;2023-11-19T08:30:24;6.83;;;6.13;;
10162;SDS011;5123;52.556;13.384;2023-11-19T08:32:57;6.10;;;5.50;;
10162;SDS011;5123;52.556;13.384;2023-11-19T08:35:34;6.33;;;5.73;;
10162;SDS011;5123;52.556;13.384;2023-11-19T08:38:08;8.03;;;5.67;;
10162;SDS011;5123;52.556;13.384;2023-11-19T08:40:41;7.43;;;5.13;;
10162;SDS011;5123;52.556;13.384;2023-11-19T08:43:14;6.07;;;5.47;;
10162;SDS011;5123;52.556;13.384;2023-11-19T08:45:47;6.83;;;6.13;;
10162;SDS011;5123;52.556;13.384;2023-11-19T08:48:20;5.90;;;5.30;;
10162;SDS011;5123;52.556;13.384;2023-11-19T08:50:53;7.20;;;6.50;;
10162;SDS011;5123;52.556;13.384;2023-11-19T08:53:29;6.67;;;6.00;;
10162;SDS011;5123;52.556;13.384;2023-11-19T08:56:01;6.77;;;5.97;;
10162;SDS011;5123;52.556;13.384;2023-11-19T08:58:35;7.77;;;6.97;;
10162;SDS011;5123;52.556;13.384;2023-11-19T09:01:07;6.77;;;6.07;;
10162;SDS011;5123;52.556;13.384;2023-11-19T09:03:41;6.47;;;5.87;;
10162;SDS011;5123;52.556;13.384;2023-11-19T09:06:14;6.97;;;6.33;;
10162;SDS011;5123;52.556;13.384;2023-11-19T09:08:48;6.00;;;4.90;;
10162;SDS011;5123;52.556;13.384;2023-11-19T09:11:23;6.07;;;5.23;;
10162;SDS011;5123;52.556;13.384;2023-11-19T09:13:56;6.87;;;6.20;;
10162;SDS011;5123;52.556;13.384;2023-11-19T09:16:30;7.03;;;6.33;;
10162;SDS011;5123;52.556;13.384;2023-11-19T09:19:03;6.93;;;5.93;;
10162;SDS011;5123;52.556;13.384;2023-11-19T09:21:37;6.50;;;5.63;;
10162;SDS011;5123;52.556;13.384;2023-11-19T09:24:15;7.10;;;6.40;;
10162;SDS011;5123;52.556;13.384;2023-11-19T09:26:52;7.87;;;6.00;;
10162;SDS011;5123;52.556;13.384;2023-11-19T09:29:26;6.87;;;5.67;;
10162;SDS011;5123;52.556;13.384;2023-11-19T09:31:59;6.20;;;5.60;;
10162;SDS011;5123;52.556;13.384;2023-11-19T09:34:32;6.30;;;5.37;;
10162;SDS011;5123;52.556;13.384;2023-11-19T09:37:06;7.33;;;5.97;;
10162;SDS011;5123;52.556;13.384;2023-11-19T09:39:54;7.70;;;5.40;;
10162;SDS011;5123;52.556;13.384;2023-11-19T09:42:26;5.77;;;5.13;;
10162;SDS011;5123;52.556;13.384;2023-11-19T09:44:59;6.03;;;5.07;;
10162;SDS011;5123;52.556;13.384;2023-11-19T09:47:32;6.90;;;5.20;;
10162;SDS011;5123;52.556;13.384;2023-11-19T09:50:05;5.60;;;4.90;;
10162;SDS011;5123;52.556;13.384;2023-11-19T09:52:39;5.03;;;4.43;;
10162;SDS011;5123;52.556;13.384;2023-11-19T09:55:13;6.90;;;4.50;;
10162;SDS011;5123;52.556;13.384;2023-11-19T09:57:49;5.97;;;4.50;;
10162;SDS011;5123;52.556;13.384;2023-11-19T10:00:25;8.20;;;4.17;;
10162;SDS011;5123;52.556;13.384;2023-11-19T10:02:58;6.60;;;4.33;;
10162;SDS011;5123;52.556;13.384;2023-11-19T10:05:31;6.77;;;4.60;;
10162;SDS011;5123;52.556;13.384;2023-11-19T10:08:04;5.50;;;3.67;;
10162;SDS011;5123;52.556;13.384;2023-11-19T10:10:38;4.77;;;4.27;;
10162;SDS011;5123;52.556;13.384;2023-11-19T10:13:11;7.17;;;4.40;;
10162;SDS011;5123;52.556;13.384;2023-11-19T10:15:48;5.90;;;4.17;;
10162;SDS011;5123;52.556;13.384;2023-11-19T10:18:23;5.63;;;4.50;;
10162;SDS011;5123;52.556;13.384;2023-11-19T10:20:57;6.97;;;3.77;;
10162;SDS011;5123;52.556;13.384;2023-11-19T10:23:31;4.43;;;3.93;;
10162;SDS011;5123;52.556;13.384;2023-11-19T10:26:05;4.90;;;3.90;;
10162;SDS011;5123;52.556;13.384;2023-11-19T10:28:38;5.97;;;3.93;;
10162;SDS011;5123;52.556;13.384;2023-11-19T10:31:11;3.57;;;3.27;;
10162;SDS011;5123;52.556;13.384;2023-11-19T10:33:47;5.30;;;3.47;;
10162;SDS011;5123;52.556;13.384;2023-11-19T10:36:20;6.77;;;3.40;;
10162;SDS011;5123;52.556;13.384;2023-11-19T10:38:56;9.47;;;3.50;;
10162;SDS011;5123;52.556;13.384;2023-11-19T10:41:31;5.47;;;3.67;;
10162;SDS011;5123;52.556;13.384;2023-11-19T10:44:05;7.47;;;3.50;;
10162;SDS011;5123;52.556;13.384;2023-11-19T10:46:38;6.40;;;3.67;;
10162;SDS011;5123;52.556;13.384;2023-11-19T10:49:12;7.00;;;3.37;;
10162;SDS011;5123;52.556;13.384;2023-11-19T10:51:45;4.37;;;3.10;;
10162;SDS011;5123;52.556;13.384;2023-11-19T10:54:18;5.43;;;3.60;;
10162;SDS011;5123;52.556;13.384;2023-11-19T10:56:54;6.27;;;3.70;;
10162;SDS011;5123;52.556;13.384;2023-11-19T10:59:28;6.80;;;3.20;;
10162;SDS011;5123;52.556;13.384;2023-11-19T11:02:14;5.73;;;3.50;;
10162;SDS011;5123;52.556;13.384;2023-11-19T11:04:53;6.07;;;3.07;;
10162;SDS011;5123;52.556;13.384;2023-11-19T11:07:27;7.40;;;3.70;;
10162;SDS011;5123;52.556;13.384;2023-11-19T11:10:11;7.73;;;3.90;;
10162;SDS011;5123;52.556;13.384;2023-11-19T11:12:47;7.83;;;3.37;;
10162;SDS011;5123;52.556;13.384;2023-11-19T11:15:21;6.10;;;3.60;;
10162;SDS011;5123;52.556;13.384;2023-11-19T11:17:55;9.80;;;3.10;;
10162;SDS011;5123;52.556;13.384;2023-11-19T11:20:30;5.67;;;2.90;;
10162;SDS011;5123;52.556;13.384;2023-11-19T11:26:00;12.63;;;3.80;;
10162;SDS011;5123;52.556;13.384;2023-11-19T11:28:46;10.87;;;3.40;;
10162;SDS011;5123;52.556;13.384;2023-11-19T11:31:30;8.43;;;3.33;;
10162;SDS011;5123;52.556;13.384;2023-11-19T11:34:11;11.80;;;3.07;;
10162;SDS011;5123;52.556;13.384;2023-11-19T11:36:49;8.40;;;3.67;;
10162;SDS011;5123;52.556;13.384;2023-11-19T11:39:24;12.77;;;4.20;;
10162;SDS011;5123;52.556;13.384;2023-11-19T11:45:03;10.17;;;3.87;;
10162;SDS011;5123;52.556;13.384;2023-11-19T11:50:31;11.87;;;4.23;;
10162;SDS011;5123;52.556;13.384;2023-11-19T11:55:59;11.63;;;4.40;;
10162;SDS011;5123;52.556;13.384;2023-11-19T11:58:35;15.47;;;4.40;;
10162;SDS011;5123;52.556;13.384;2023-11-19T12:01:10;14.03;;;4.07;;
10162;SDS011;5123;52.556;13.384;2023-11-19T12:03:55;10.53;;;3.07;;
10162;SDS011;5123;52.556;13.384;2023-11-19T12:06:28;9.97;;;3.43;;
10162;SDS011;5123;52.556;13.384;2023-11-19T12:09:00;8.43;;;3.90;;
10162;SDS011;5123;52.556;13.384;2023-11-19T12:11:34;12.00;;;4.53;;
10162;SDS011;5123;52.556;13.384;2023-11-19T12:14:08;12.07;;;4.07;;
10162;SDS011;5123;52.556;13.384;2023-11-19T12:16:45;11.83;;;4.37;;
10162;SDS011;5123;52.556;13.384;2023-11-19T12:19:18;12.67;;;4.00;;
10162;SDS011;5123;52.556;13.384;2023-11-19T12:21:56;14.23;;;4.07;;
10162;SDS011;5123;52.556;13.384;2023-11-19T12:24:31;13.03;;;4.70;;
10162;SDS011;5123;52.556;13.384;2023-11-19T12:27:06;11.20;;;3.80;;
10162;SDS011;5123;52.556;13.384;2023-11-19T12:29:41;10.07;;;4.20;;
10162;SDS011;5123;52.556;13.384;2023-11-19T12:32:19;12.87;;;4.40;;
10162;SDS011;5123;52.556;13.384;2023-11-19T12:34:52;14.13;;;5.07;;
10162;SDS011;5123;52.556;13.384;2023-11-19T12:37:24;11.07;;;4.23;;
10162;SDS011;5123;52.556;13.384;2023-11-19T12:39:57;10.50;;;4.10;;
10162;SDS011;5123;52.556;13.384;2023-11-19T12:42:39;15.83;;;4.70;;
10162;SDS011;5123;52.556;13.384;2023-11-19T12:45:12;14.87;;;5.03;;
10162;SDS011;5123;52.556;13.384;2023-11-19T12:47:46;17.40;;;5.67;;
10162;SDS011;5123;52.556;13.384;2023-11-19T12:50:21;11.33;;;4.87;;
10162;SDS011;5123;52.556;13.384;2023-11-19T12:52:57;12.43;;;4.53;;
10162;SDS011;5123;52.556;13.384;2023-11-19T12:55:30;11.77;;;4.30;;
10162;SDS011;5123;52.556;13.384;2023-11-19T12:58:04;14.10;;;4.43;;
10162;SDS011;5123;52.556;13.384;2023-11-19T13:00:36;11.83;;;4.17;;
10162;SDS011;5123;52.556;13.384;2023-11-19T13:03:13;8.20;;;2.43;;
10162;SDS011;5123;52.556;13.384;2023-11-19T13:06:06;12.20;;;3.80;;
10162;SDS011;5123;52.556;13.384;2023-11-19T13:08:40;12.63;;;4.67;;
10162;SDS011;5123;52.556;13.384;2023-11-19T13:11:30;10.33;;;3.53;;
10162;SDS011;5123;52.556;13.384;2023-11-19T13:14:06;18.93;;;4.30;;
10162;SDS011;5123;52.556;13.384;2023-11-19T13:16:41;11.77;;;4.03;;
10162;SDS011;5123;52.556;13.384;2023-11-19T13:19:18;12.27;;;3.80;;
10162;SDS011;5123;52.556;13.384;2023-11-19T13:21:51;14.33;;;4.10;;
10162;SDS011;5123;52.556;13.384;2023-11-19T13:24:24;11.97;;;4.67;;
10162;SDS011;5123;52.556;13.384;2023-11-19T13:26:57;14.57;;;4.00;;
10162;SDS011;5123;52.556;13.384;2023-11-19T13:29:29;12.27;;;3.47;;
10162;SDS011;5123;52.556;13.384;2023-11-19T13:32:04;12.50;;;4.60;;
10162;SDS011;5123;52.556;13.384;2023-11-19T13:34:39;12.47;;;4.47;;
10162;SDS011;5123;52.556;13.384;2023-11-19T13:37:12;15.67;;;4.53;;
10162;SDS011;5123;52.556;13.384;2023-11-19T13:39:45;18.37;;;5.50;;
10162;SDS011;5123;52.556;13.384;2023-11-19T13:42:18;14.93;;;6.40;;
10162;SDS011;5123;52.556;13.384;2023-11-19T13:44:51;14.80;;;4.60;;
10162;SDS011;5123;52.556;13.384;2023-11-19T13:47:24;18.87;;;4.90;;
10162;SDS011;5123;52.556;13.384;2023-11-19T13:49:58;15.87;;;4.87;;
10162;SDS011;5123;52.556;13.384;2023-11-19T13:52:31;18.20;;;4.70;;
10162;SDS011;5123;52.556;13.384;2023-11-19T13:55:05;21.37;;;5.37;;
10162;SDS011;5123;52.556;13.384;2023-11-19T13:57:39;14.97;;;4.70;;
10162;SDS011;5123;52.556;13.384;2023-11-19T14:00:12;13.83;;;4.10;;
10162;SDS011;5123;52.556;13.384;2023-11-19T14:02:49;17.67;;;5.57;;
10162;SDS011;5123;52.556;13.384;2023-11-19T14:05:25;15.97;;;4.50;;
10162;SDS011;5123;52.556;13.384;2023-11-19T14:08:03;15.83;;;4.90;;
10162;SDS011;5123;52.556;13.384;2023-11-19T14:10:54;12.73;;;5.23;;
10162;SDS011;5123;52.556;13.384;2023-11-19T14:13:27;16.93;;;4.73;;
10162;SDS011;5123;52.556;13.384;2023-11-19T14:16:00;11.47;;;4.27;;
10162;SDS011;5123;52.556;13.384;2023-11-19T14:18:34;13.37;;;5.07;;
10162;SDS011;5123;52.556;13.384;2023-11-19T14:21:08;15.93;;;5.80;;
10162;SDS011;5123;52.556;13.384;2023-11-19T14:23:41;17.37;;;5.13;;
10162;SDS011;5123;52.556;13.384;2023-11-19T14:26:16;16.97;;;4.70;;
10162;SDS011;5123;52.556;13.384;2023-11-19T14:28:49;11.57;;;5.03;;
10162;SDS011;5123;52.556;13.384;2023-11-19T14:31:27;18.50;;;5.03;;
10162;SDS011;5123;52.556;13.384;2023-11-19T14:34:00;17.00;;;5.40;;
10162;SDS011;5123;52.556;13.384;2023-11-19T14:36:35;19.83;;;5.53;;
10162;SDS011;5123;52.556;13.384;2023-11-19T14:39:08;19.60;;;5.37;;
10162;SDS011;5123;52.556;13.384;2023-11-19T14:41:42;20.63;;;5.30;;
10162;SDS011;5123;52.556;13.384;2023-11-19T14:44:17;16.63;;;5.57;;
10162;SDS011;5123;52.556;13.384;2023-11-19T14:46:51;14.30;;;5.33;;
10162;SDS011;5123;52.556;13.384;2023-11-19T14:49:24;13.20;;;5.10;;
10162;SDS011;5123;52.556;13.384;2023-11-19T14:51:59;21.87;;;5.40;;
10162;SDS011;5123;52.556;13.384;2023-11-19T14:54:35;20.23;;;5.97;;
10162;SDS011;5123;52.556;13.384;2023-11-19T14:57:08;19.97;;;6.10;;
10162;SDS011;5123;52.556;13.384;2023-11-19T14:59:42;18.73;;;5.37;;
10162;SDS011;5123;52.556;13.384;2023-11-19T15:02:14;30.07;;;6.03;;
10162;SDS011;5123;52.556;13.384;2023-11-19T15:04:47;15.87;;;5.97;;
10162;SDS011;5123;52.556;13.384;2023-11-19T15:07:21;13.70;;;4.47;;
10162;SDS011;5123;52.556;13.384;2023-11-19T15:09:54;16.33;;;4.57;;
10162;SDS011;5123;52.556;13.384;2023-11-19T15:12:27;14.77;;;4.60;;
10162;SDS011;5123;52.556;13.384;2023-11-19T15:15:01;19.20;;;5.13;;
10162;SDS011;5123;52.556;13.384;2023-11-19T15:17:34;14.90;;;4.83;;
10162;SDS011;5123;52.556;13.384;2023-11-19T15:20:08;17.83;;;4.87;;
10162;SDS011;5123;52.556;13.384;2023-11-19T15:22:43;13.50;;;4.37;;
10162;SDS011;5123;52.556;13.384;2023-11-19T15:25:21;17.90;;;5.17;;
10162;SDS011;5123;52.556;13.384;2023-11-19T15:27:57;22.30;;;5.50;;
10162;SDS011;5123;52.556;13.384;2023-11-19T15:30:30;17.30;;;4.93;;
10162;SDS011;5123;52.556;13.384;2023-11-19T15:33:03;16.07;;;4.53;;
10162;SDS011;5123;52.556;13.384;2023-11-19T15:35:37;15.30;;;3.97;;
10162;SDS011;5123;52.556;13.384;2023-11-19T15:38:17;17.67;;;4.40;;